createdAt,value
2023-01-26T00:01:10.746Z,67.80
2023-01-26T00:03:38.834Z,67.90
2023-01-26T00:06:07.029Z,67.90
2023-01-26T00:08:38.553Z,67.80
2023-01-26T00:11:06.886Z,67.80
2023-01-26T00:13:34.985Z,67.70
2023-01-26T00:16:03.319Z,67.80
2023-01-26T00:18:31.574Z,67.80
2023-01-26T00:21:03.962Z,67.80
2023-01-26T00:23:32.666Z,67.80
2023-01-26T00:26:02.068Z,67.80
2023-01-26T00:28:30.121Z,67.80
2023-01-26T00:31:03.738Z,67.70
2023-01-26T00:33:31.835Z,67.70
2023-01-26T00:35:59.888Z,67.80
2023-01-26T00:38:28.090Z,67.80
2023-01-26T00:40:56.290Z,67.80
2023-01-26T00:43:25.697Z,67.70
2023-01-26T00:45:53.743Z,67.90
2023-01-26T00:48:24.473Z,67.80
2023-01-26T00:50:52.789Z,67.80
2023-01-26T00:53:21.015Z,67.90
2023-01-26T00:55:49.048Z,67.70
2023-01-26T00:58:17.060Z,67.90
2023-01-26T01:00:46.971Z,67.70
2023-01-26T01:03:15.013Z,67.80
2023-01-26T01:05:43.032Z,67.70
2023-01-26T01:08:11.098Z,67.80
2023-01-26T01:10:40.288Z,67.80
2023-01-26T01:13:08.364Z,67.70
2023-01-26T01:15:36.406Z,67.90
2023-01-26T01:18:06.073Z,67.70
2023-01-26T01:20:34.139Z,67.80
2023-01-26T01:23:02.205Z,67.80
2023-01-26T01:25:30.275Z,67.70
2023-01-26T01:27:58.335Z,67.70
2023-01-26T01:30:26.398Z,67.70
2023-01-26T01:32:54.411Z,67.90
2023-01-26T01:35:23.859Z,67.70
2023-01-26T01:37:51.907Z,67.70
2023-01-26T01:40:20.051Z,67.80
2023-01-26T01:42:48.892Z,67.80
2023-01-26T01:45:40.435Z,67.70
2023-01-26T01:48:10.840Z,67.80
2023-01-26T01:50:40.735Z,67.80
2023-01-26T01:53:08.851Z,67.80
2023-01-26T01:55:36.902Z,67.90
2023-01-26T01:58:04.991Z,67.90
2023-01-26T02:00:33.126Z,67.80
2023-01-26T02:03:14.986Z,67.90
2023-01-26T02:05:50.095Z,67.90
2023-01-26T02:08:18.506Z,67.70
2023-01-26T02:10:47.786Z,67.90
2023-01-26T02:13:15.847Z,67.90
2023-01-26T02:15:44.148Z,67.80
2023-01-26T02:18:12.199Z,67.80
2023-01-26T02:20:47.909Z,67.70
2023-01-26T02:23:33.232Z,67.90
2023-01-26T02:26:13.106Z,67.90
2023-01-26T02:28:41.684Z,67.90
2023-01-26T02:31:09.822Z,67.90
2023-01-26T02:33:37.941Z,67.80
2023-01-26T02:36:06.686Z,67.90
2023-01-26T02:38:39.422Z,67.90
2023-01-26T02:41:08.446Z,67.90
2023-01-26T02:43:36.866Z,67.90
2023-01-26T02:46:15.704Z,67.80
2023-01-26T02:49:01.010Z,67.80
2023-01-26T02:51:29.070Z,67.90
2023-01-26T02:53:57.105Z,67.90
2023-01-26T02:56:24.163Z,67.90
2023-01-26T02:58:53.570Z,67.90
2023-01-26T03:01:21.624Z,67.90
2023-01-26T03:03:49.697Z,67.90
2023-01-26T03:06:18.545Z,67.90
2023-01-26T03:08:46.586Z,67.90
2023-01-26T03:11:14.639Z,67.90
2023-01-26T03:13:42.699Z,67.90
2023-01-26T03:16:12.225Z,67.80
2023-01-26T03:18:57.956Z,67.90
2023-01-26T03:21:43.672Z,67.90
2023-01-26T03:24:29.306Z,67.90
2023-01-26T03:27:14.959Z,68.00
2023-01-26T03:29:43.034Z,67.90
2023-01-26T03:32:12.523Z,67.90
2023-01-26T03:34:40.581Z,68.00
2023-01-26T03:37:08.646Z,68.00
2023-01-26T03:39:53.860Z,67.90
2023-01-26T03:42:39.650Z,67.90
2023-01-26T03:45:26.073Z,68.00
2023-01-26T03:48:21.351Z,67.90
2023-01-26T03:51:06.650Z,67.90
2023-01-26T03:53:52.311Z,68.00
2023-01-26T03:56:24.479Z,67.90
2023-01-26T03:58:53.787Z,68.00
2023-01-26T04:01:26.244Z,67.90
2023-01-26T04:04:13.786Z,68.10
2023-01-26T04:07:00.220Z,68.00
2023-01-26T04:09:45.755Z,67.90
2023-01-26T04:12:14.164Z,68.00
2023-01-26T04:14:59.747Z,68.00
2023-01-26T04:17:45.221Z,68.10
2023-01-26T04:20:32.339Z,67.90
2023-01-26T04:23:00.437Z,68.00
2023-01-26T04:25:33.756Z,68.00
2023-01-26T04:28:01.824Z,68.00
2023-01-26T04:30:29.985Z,67.90
2023-01-26T04:32:59.369Z,68.10
2023-01-26T04:35:28.783Z,68.10
2023-01-26T04:37:57.733Z,68.00
2023-01-26T04:40:33.804Z,68.00
2023-01-26T04:43:01.854Z,68.10
2023-01-26T04:45:33.786Z,68.10
2023-01-26T04:48:01.829Z,68.10
2023-01-26T04:50:35.234Z,68.10
2023-01-26T04:53:03.822Z,68.10
2023-01-26T04:55:31.896Z,68.10
2023-01-26T04:57:59.953Z,68.20
2023-01-26T05:00:33.779Z,68.10
2023-01-26T05:03:03.770Z,68.10
2023-01-26T05:05:38.273Z,68.10
2023-01-26T05:08:06.559Z,68.10
2023-01-26T05:10:52.485Z,68.20
2023-01-26T05:13:27.779Z,68.20
2023-01-26T05:15:55.851Z,68.20
2023-01-26T05:18:23.917Z,68.10
2023-01-26T05:20:53.368Z,68.20
2023-01-26T05:23:21.785Z,68.10
2023-01-26T05:25:49.879Z,68.20
2023-01-26T05:28:17.940Z,68.20
2023-01-26T05:30:46.103Z,68.20
2023-01-26T05:33:14.307Z,68.20
2023-01-26T05:35:42.361Z,68.10
2023-01-26T05:38:17.456Z,68.20
2023-01-26T05:40:51.855Z,68.20
2023-01-26T05:43:19.938Z,68.20
2023-01-26T05:45:48.009Z,68.20
2023-01-26T05:48:16.083Z,68.20
2023-01-26T05:50:45.893Z,68.30
2023-01-26T05:53:13.958Z,68.30
2023-01-26T05:55:43.415Z,68.20
2023-01-26T05:58:11.498Z,68.20
2023-01-26T06:00:39.561Z,68.20
2023-01-26T06:03:07.640Z,68.20
2023-01-26T06:05:35.733Z,68.20
2023-01-26T06:08:03.804Z,68.30
2023-01-26T06:10:31.947Z,68.30
2023-01-26T06:13:01.357Z,68.30
2023-01-26T06:15:29.495Z,68.30
2023-01-26T06:17:57.571Z,68.30
2023-01-26T06:20:25.647Z,68.20
2023-01-26T06:23:01.468Z,68.30
2023-01-26T06:25:29.552Z,68.30
2023-01-26T06:27:58.844Z,68.30
2023-01-26T06:30:28.626Z,68.40
2023-01-26T06:32:59.590Z,68.40
2023-01-26T06:35:28.210Z,68.40
2023-01-26T06:37:56.291Z,68.40
2023-01-26T06:40:24.338Z,68.30
2023-01-26T06:42:52.387Z,68.40
2023-01-26T06:45:20.837Z,68.40
2023-01-26T06:47:50.605Z,68.30
2023-01-26T06:50:20.530Z,68.40
2023-01-26T06:52:49.022Z,68.30
2023-01-26T06:55:24.005Z,68.40
2023-01-26T06:57:57.878Z,68.40
2023-01-26T07:00:26.085Z,68.40
2023-01-26T07:02:55.560Z,68.40
2023-01-26T07:05:23.646Z,68.40
2023-01-26T07:07:51.698Z,68.50
2023-01-26T07:10:19.891Z,68.50
2023-01-26T07:12:51.895Z,68.40
2023-01-26T07:15:19.925Z,68.50
2023-01-26T07:17:51.885Z,68.40
2023-01-26T07:20:21.312Z,68.40
2023-01-26T07:22:50.121Z,68.50
2023-01-26T07:25:18.150Z,68.40
2023-01-26T07:27:46.189Z,68.50
2023-01-26T07:30:15.352Z,68.50
2023-01-26T07:32:43.479Z,68.40
2023-01-26T07:35:11.539Z,68.50
2023-01-26T07:37:40.955Z,68.50
2023-01-26T07:40:11.781Z,68.50
2023-01-26T07:42:40.165Z,68.40
2023-01-26T07:45:09.298Z,68.50
2023-01-26T07:47:45.992Z,68.50
2023-01-26T07:50:14.285Z,68.50
2023-01-26T07:52:44.966Z,68.50
2023-01-26T07:55:16.301Z,68.60
2023-01-26T07:57:44.695Z,68.50
2023-01-26T08:00:13.832Z,68.50
2023-01-26T08:02:41.981Z,68.50
2023-01-26T08:05:10.654Z,68.50
2023-01-26T08:07:39.380Z,68.50
2023-01-26T08:10:12.638Z,68.50
2023-01-26T08:12:51.935Z,68.60
2023-01-26T08:15:28.014Z,68.60
2023-01-26T08:17:56.108Z,68.60
2023-01-26T08:20:24.415Z,68.80
2023-01-26T08:22:52.463Z,68.90
2023-01-26T08:25:21.884Z,68.80
2023-01-26T08:27:49.946Z,68.70
2023-01-26T08:30:18.822Z,68.70
2023-01-26T08:32:46.878Z,68.70
2023-01-26T08:35:14.965Z,68.70
2023-01-26T08:37:43.028Z,68.80
2023-01-26T08:40:12.555Z,68.80
2023-01-26T08:42:42.131Z,68.70
2023-01-26T08:45:10.990Z,68.70
2023-01-26T08:47:39.054Z,68.80
2023-01-26T08:50:07.685Z,68.70
2023-01-26T08:52:35.766Z,68.70
2023-01-26T08:55:04.635Z,68.80
2023-01-26T08:57:32.707Z,68.70
2023-01-26T09:00:02.107Z,68.80
2023-01-26T09:02:30.470Z,68.80
2023-01-26T09:04:58.558Z,68.80
2023-01-26T09:07:46.208Z,68.70
2023-01-26T09:10:33.532Z,68.80
2023-01-26T09:13:04.068Z,68.80
2023-01-26T09:15:33.490Z,68.80
2023-01-26T09:18:01.527Z,68.90
2023-01-26T09:20:29.597Z,68.80
2023-01-26T09:22:57.665Z,68.80
2023-01-26T09:25:28.030Z,68.80
2023-01-26T09:27:56.173Z,68.80
2023-01-26T09:30:28.162Z,68.80
2023-01-26T09:33:00.896Z,68.80
2023-01-26T09:35:29.174Z,68.80
2023-01-26T09:37:57.265Z,68.80
2023-01-26T09:40:36.068Z,68.90
2023-01-26T09:43:09.882Z,68.90
2023-01-26T09:45:40.679Z,68.80
2023-01-26T09:48:20.572Z,68.90
2023-01-26T09:50:52.249Z,68.90
2023-01-26T09:53:23.540Z,68.90
2023-01-26T09:55:51.590Z,69.00
2023-01-26T09:58:21.325Z,69.00
2023-01-26T10:00:50.167Z,69.00
2023-01-26T10:03:24.796Z,69.00
2023-01-26T10:05:54.933Z,69.00
2023-01-26T10:08:23.720Z,69.00
2023-01-26T10:10:53.996Z,69.00
2023-01-26T10:13:22.110Z,69.00
2023-01-26T10:15:52.040Z,69.00
2023-01-26T10:18:23.664Z,69.00
2023-01-26T10:20:52.717Z,69.20
2023-01-26T10:23:23.377Z,69.20
2023-01-26T10:25:52.060Z,69.20
2023-01-26T10:28:21.024Z,69.20
2023-01-26T10:30:51.342Z,69.20
2023-01-26T10:33:24.031Z,69.20
2023-01-26T10:35:52.278Z,69.20
2023-01-26T10:38:42.130Z,69.20
2023-01-26T10:41:24.979Z,69.20
2023-01-26T10:43:54.355Z,69.20
2023-01-26T10:46:30.297Z,69.20
2023-01-26T10:49:00.809Z,69.20
2023-01-26T10:51:30.992Z,69.20
2023-01-26T10:54:21.469Z,69.20
2023-01-26T10:56:51.359Z,69.40
2023-01-26T10:59:31.027Z,69.20
2023-01-26T11:02:00.575Z,69.20
2023-01-26T11:04:35.622Z,69.40
2023-01-26T11:07:24.303Z,69.20
2023-01-26T11:09:53.548Z,69.40
2023-01-26T11:12:22.650Z,69.20
2023-01-26T11:15:02.059Z,69.40
2023-01-26T11:17:37.024Z,69.40
2023-01-26T11:20:27.848Z,69.40
2023-01-26T11:22:58.428Z,69.40
2023-01-26T11:25:27.053Z,69.50
2023-01-26T11:28:14.561Z,69.50
2023-01-26T11:31:10.314Z,69.50
2023-01-26T11:33:40.630Z,69.50
2023-01-26T11:36:14.733Z,69.60
2023-01-26T11:38:43.735Z,69.50
2023-01-26T11:41:21.241Z,69.60
2023-01-26T11:43:56.847Z,69.60
2023-01-26T11:46:35.060Z,69.60
2023-01-26T11:49:09.408Z,69.50
2023-01-26T11:51:45.362Z,69.60
2023-01-26T11:54:30.098Z,69.60
2023-01-26T11:57:08.638Z,69.60
2023-01-26T11:59:39.262Z,69.60
2023-01-26T12:02:13.584Z,69.70
2023-01-26T12:04:52.593Z,69.70
2023-01-26T12:07:23.898Z,69.70
2023-01-26T12:09:52.917Z,69.70
2023-01-26T12:12:23.765Z,69.70
2023-01-26T12:14:52.607Z,69.80
2023-01-26T12:17:30.986Z,69.70
2023-01-26T12:20:04.901Z,69.80
2023-01-26T12:22:35.372Z,69.80
2023-01-26T12:25:19.010Z,69.80
2023-01-26T12:27:49.128Z,69.90
2023-01-26T12:30:25.374Z,69.90
2023-01-26T12:32:53.507Z,69.90
2023-01-26T12:35:28.210Z,69.90
2023-01-26T12:38:12.130Z,69.90
2023-01-26T12:40:54.352Z,69.90
2023-01-26T12:43:27.771Z,69.90
2023-01-26T12:45:56.072Z,69.90
2023-01-26T12:48:24.816Z,70.00
2023-01-26T12:50:54.347Z,70.00
2023-01-26T12:53:30.178Z,70.00
2023-01-26T12:56:08.006Z,69.90
2023-01-26T12:58:36.683Z,70.00
2023-01-26T13:01:06.232Z,70.00
2023-01-26T13:03:35.467Z,70.00
2023-01-26T13:06:04.567Z,70.00
2023-01-26T13:08:51.605Z,70.10
2023-01-26T13:11:44.649Z,70.10
2023-01-26T13:14:32.738Z,70.10
2023-01-26T13:17:42.010Z,70.10
2023-01-26T13:20:27.065Z,70.30
2023-01-26T13:22:55.353Z,70.10
2023-01-26T13:25:32.430Z,70.20
2023-01-26T13:28:01.020Z,70.20
2023-01-26T13:30:41.030Z,70.30
2023-01-26T13:33:17.504Z,70.30
2023-01-26T13:35:45.900Z,70.30
2023-01-26T13:38:22.937Z,70.30
2023-01-26T13:40:52.362Z,70.30
2023-01-26T13:43:28.277Z,70.30
2023-01-26T13:46:10.047Z,70.30
2023-01-26T13:48:45.139Z,70.40
2023-01-26T13:51:18.475Z,70.40
2023-01-26T13:53:55.912Z,70.40
2023-01-26T13:56:30.490Z,70.40
2023-01-26T13:59:06.481Z,70.40
2023-01-26T14:01:34.627Z,70.50
2023-01-26T14:04:06.445Z,70.40
2023-01-26T14:06:35.307Z,70.50
2023-01-26T14:09:03.411Z,70.50
2023-01-26T14:11:33.416Z,70.50
2023-01-26T14:14:02.708Z,70.50
2023-01-26T14:16:31.786Z,70.60
2023-01-26T14:19:07.712Z,70.60
2023-01-26T14:21:45.720Z,70.60
2023-01-26T14:24:13.872Z,70.70
2023-01-26T14:26:43.321Z,70.60
2023-01-26T14:29:23.612Z,70.60
2023-01-26T14:31:52.754Z,70.70
2023-01-26T14:34:22.437Z,70.80
2023-01-26T14:36:50.595Z,70.70
2023-01-26T14:39:22.315Z,70.70
2023-01-26T14:41:51.741Z,70.70
2023-01-26T14:44:19.811Z,70.70
2023-01-26T14:46:53.078Z,70.70
2023-01-26T14:49:22.815Z,70.80
2023-01-26T14:51:53.037Z,70.80
2023-01-26T14:54:23.451Z,70.70
2023-01-26T14:56:52.877Z,70.80
2023-01-26T14:59:23.520Z,70.80
2023-01-26T15:01:51.758Z,70.90
2023-01-26T15:04:23.699Z,70.90
2023-01-26T15:06:51.766Z,70.90
2023-01-26T15:09:22.313Z,70.90
2023-01-26T15:12:13.072Z,70.90
2023-01-26T15:14:49.416Z,70.90
2023-01-26T15:17:38.466Z,71.00
2023-01-26T15:20:33.338Z,71.00
2023-01-26T15:23:01.421Z,71.00
2023-01-26T15:25:29.802Z,71.10
2023-01-26T15:27:59.851Z,71.10
2023-01-26T15:30:29.261Z,71.10
2023-01-26T15:32:57.725Z,71.10
2023-01-26T15:35:26.367Z,71.10
2023-01-26T15:38:04.223Z,71.10
2023-01-26T15:40:32.658Z,71.10
2023-01-26T15:43:12.387Z,71.10
2023-01-26T15:45:40.883Z,71.20
2023-01-26T15:48:08.953Z,71.20
2023-01-26T15:50:37.120Z,71.20
2023-01-26T15:53:05.186Z,71.20
2023-01-26T15:55:33.674Z,71.20
2023-01-26T15:58:01.918Z,71.20
2023-01-26T16:00:31.349Z,71.20
2023-01-26T16:03:06.164Z,71.20
2023-01-26T16:05:34.224Z,71.30
2023-01-26T16:08:02.326Z,71.30
2023-01-26T16:10:30.397Z,71.30
2023-01-26T16:12:58.453Z,71.30
2023-01-26T16:15:34.045Z,71.30
2023-01-26T16:18:02.105Z,71.30
2023-01-26T16:20:30.172Z,71.30
2023-01-26T16:22:58.225Z,71.30
2023-01-26T16:25:27.663Z,71.40
2023-01-26T16:27:56.957Z,71.40
2023-01-26T16:30:25.157Z,71.40
2023-01-26T16:32:54.555Z,71.50
2023-01-26T16:35:23.422Z,71.40
2023-01-26T16:37:51.810Z,71.50
2023-01-26T16:40:20.320Z,71.50
2023-01-26T16:42:49.118Z,71.50
2023-01-26T16:45:18.602Z,71.50
2023-01-26T16:47:46.639Z,71.50
2023-01-26T16:50:16.722Z,71.50
2023-01-26T16:52:44.770Z,71.60
2023-01-26T16:55:13.963Z,71.60
2023-01-26T16:57:42.553Z,71.60
2023-01-26T17:00:14.331Z,71.60
2023-01-26T17:02:42.424Z,71.60
2023-01-26T17:05:16.172Z,71.70
2023-01-26T17:07:44.256Z,71.70
2023-01-26T17:10:13.530Z,71.70
2023-01-26T17:12:41.566Z,71.70
2023-01-26T17:15:11.214Z,71.70
2023-01-26T17:17:39.572Z,71.80
2023-01-26T17:20:18.480Z,71.80
2023-01-26T17:22:49.586Z,71.80
2023-01-26T17:25:18.403Z,71.80
2023-01-26T17:27:49.824Z,71.80
2023-01-26T17:30:18.923Z,71.80
2023-01-26T17:32:47.020Z,71.80
2023-01-26T17:35:15.082Z,71.80
2023-01-26T17:37:43.160Z,71.80
2023-01-26T17:40:13.346Z,71.80
2023-01-26T17:42:41.417Z,71.80
2023-01-26T17:45:11.054Z,71.80
2023-01-26T17:47:39.767Z,71.90
2023-01-26T17:50:08.730Z,71.90
2023-01-26T17:52:36.770Z,71.90
2023-01-26T17:55:06.325Z,71.90
2023-01-26T17:57:35.986Z,71.90
2023-01-26T18:00:04.847Z,71.90
2023-01-26T18:02:33.869Z,72.00
2023-01-26T18:05:01.924Z,72.00
2023-01-26T18:07:29.989Z,72.00
2023-01-26T18:09:58.009Z,72.00
2023-01-26T18:12:26.059Z,72.00
2023-01-26T18:14:55.491Z,72.10
2023-01-26T18:17:23.529Z,72.00
2023-01-26T18:19:51.579Z,72.00
2023-01-26T18:22:19.811Z,72.10
2023-01-26T18:24:52.796Z,72.00
2023-01-26T18:27:20.898Z,72.10
2023-01-26T18:29:48.981Z,72.10
2023-01-26T18:32:18.639Z,72.10
2023-01-26T18:34:46.671Z,72.20
2023-01-26T18:37:14.724Z,72.20
2023-01-26T18:39:42.839Z,72.20
2023-01-26T18:42:10.894Z,72.20
2023-01-26T18:44:38.976Z,72.20
2023-01-26T18:47:07.027Z,72.20
2023-01-26T18:49:36.491Z,72.20
2023-01-26T18:52:05.190Z,72.20
2023-01-26T18:54:33.517Z,72.20
2023-01-26T18:57:01.597Z,72.30
2023-01-26T18:59:34.473Z,72.30
2023-01-26T19:02:03.259Z,72.30
2023-01-26T19:04:31.561Z,72.30
2023-01-26T19:07:00.989Z,72.40
2023-01-26T19:09:33.164Z,72.40
2023-01-26T19:12:02.157Z,72.40
2023-01-26T19:14:32.211Z,72.40
2023-01-26T19:17:00.359Z,72.40
2023-01-26T19:19:29.374Z,72.50
2023-01-26T19:21:57.589Z,72.40
2023-01-26T19:24:27.084Z,72.50
2023-01-26T19:26:55.138Z,72.50
2023-01-26T19:29:23.193Z,72.50
2023-01-26T19:31:51.415Z,72.50
2023-01-26T19:34:19.491Z,72.50
2023-01-26T19:36:47.840Z,72.50
2023-01-26T19:39:15.877Z,72.70
2023-01-26T19:41:46.340Z,72.70
2023-01-26T19:44:14.445Z,72.70
2023-01-26T19:46:42.509Z,72.70
2023-01-26T19:49:11.884Z,72.70
2023-01-26T19:51:40.007Z,72.70
2023-01-26T19:54:08.046Z,72.80
2023-01-26T19:56:36.916Z,72.80
2023-01-26T19:59:07.432Z,72.90
2023-01-26T20:01:35.761Z,72.80
2023-01-26T20:04:05.427Z,72.90
2023-01-26T20:06:34.320Z,72.90
2023-01-26T20:09:03.559Z,72.90
2023-01-26T20:11:31.666Z,72.90
2023-01-26T20:14:00.665Z,72.90
2023-01-26T20:16:30.347Z,72.90
2023-01-26T20:18:59.174Z,72.90
2023-01-26T20:21:27.627Z,72.90
2023-01-26T20:23:56.357Z,72.90
2023-01-26T20:26:24.540Z,72.90
2023-01-26T20:28:52.853Z,72.90
2023-01-26T20:31:23.017Z,73.00
2023-01-26T20:33:53.396Z,73.00
2023-01-26T20:36:22.604Z,73.00
2023-01-26T20:38:50.770Z,73.10
2023-01-26T20:41:20.364Z,73.10
2023-01-26T20:43:59.316Z,73.10
2023-01-26T20:46:29.391Z,73.20
2023-01-26T20:48:58.936Z,73.10
2023-01-26T20:51:29.408Z,73.10
2023-01-26T20:53:57.729Z,73.20
2023-01-26T20:56:25.864Z,73.20
2023-01-26T20:58:54.336Z,73.20
2023-01-26T21:01:22.539Z,73.20
2023-01-26T21:03:50.744Z,73.20
2023-01-26T21:06:20.752Z,73.20
2023-01-26T21:08:48.831Z,73.30
2023-01-26T21:11:17.539Z,73.30
2023-01-26T21:13:45.637Z,73.30
2023-01-26T21:16:14.876Z,73.40
2023-01-26T21:18:43.139Z,73.40
2023-01-26T21:21:17.856Z,73.30
2023-01-26T21:23:47.396Z,73.40
2023-01-26T21:26:16.333Z,73.40
2023-01-26T21:28:44.398Z,73.40
2023-01-26T21:31:13.838Z,73.40
2023-01-26T21:33:43.011Z,73.50
2023-01-26T21:36:23.596Z,73.40
2023-01-26T21:38:53.762Z,73.40
2023-01-26T21:41:40.145Z,73.50
2023-01-26T21:44:08.996Z,73.50
2023-01-26T21:46:37.121Z,73.50
2023-01-26T21:49:05.317Z,73.60
2023-01-26T21:51:47.297Z,73.60
2023-01-26T21:54:16.982Z,73.60
2023-01-26T21:56:45.007Z,73.60
2023-01-26T21:59:14.595Z,73.60
2023-01-26T22:01:43.603Z,73.60
2023-01-26T22:04:13.536Z,73.50
2023-01-26T22:06:41.748Z,73.70
2023-01-26T22:09:11.633Z,73.60
2023-01-26T22:11:41.064Z,73.70
2023-01-26T22:14:09.185Z,73.70
2023-01-26T22:16:37.367Z,73.70
2023-01-26T22:19:05.434Z,73.80
2023-01-26T22:21:33.819Z,73.70
2023-01-26T22:24:01.909Z,73.70
2023-01-26T22:26:29.967Z,73.70
2023-01-26T22:28:59.733Z,73.70
2023-01-26T22:31:29.414Z,73.70
2023-01-26T22:33:59.794Z,73.70
2023-01-26T22:36:27.935Z,73.70
2023-01-26T22:38:55.992Z,73.70
2023-01-26T22:41:24.713Z,73.70
2023-01-26T22:43:54.330Z,73.70
2023-01-26T22:46:24.456Z,73.70
2023-01-26T22:48:52.625Z,73.70
2023-01-26T22:51:21.588Z,73.70
2023-01-26T22:53:50.279Z,73.70
2023-01-26T22:56:18.690Z,73.80
2023-01-26T22:58:57.543Z,73.80
2023-01-26T23:01:27.765Z,73.80
2023-01-26T23:03:56.281Z,73.80
2023-01-26T23:06:24.567Z,73.80
2023-01-26T23:08:52.649Z,73.80
2023-01-26T23:11:21.820Z,73.90
2023-01-26T23:13:50.655Z,73.80
2023-01-26T23:16:18.811Z,73.80
2023-01-26T23:18:48.453Z,73.80
2023-01-26T23:21:16.532Z,73.80
2023-01-26T23:23:44.566Z,73.90
2023-01-26T23:26:12.604Z,74.00
2023-01-26T23:28:42.140Z,73.90
2023-01-26T23:31:10.502Z,73.80
2023-01-26T23:33:38.817Z,73.90
2023-01-26T23:36:09.291Z,73.90
2023-01-26T23:38:37.408Z,73.80
2023-01-26T23:41:05.978Z,73.90
2023-01-26T23:43:34.081Z,73.90
2023-01-26T23:46:02.165Z,73.90
2023-01-26T23:48:34.677Z,73.90
2023-01-26T23:51:03.987Z,73.90
2023-01-26T23:53:33.411Z,73.90
2023-01-26T23:56:02.037Z,73.90
2023-01-26T23:58:30.049Z,73.90
